Covert, MI (49043)

12:36 AM EDT on July 30, 2016 (GMT -0400)
East Paw Paw Lake | | Change Station

Elev 663 ft 42.21 °N, 86.25 °W | Updated 6 seconds ago

Overcast
Overcast
66.9 °F
Feels Like 66.9 °F
N
0.0
Wind Variable Wind from NE
Gusts 2.0 mph

Today
High -- | Low -- °F
--% Chance of Precip.
Yesterday
High -- | Low -- °F
Precip. -- in
Pressure 29.96 in
Visibility 10.0 miles
Clouds Overcast 11000 ft
Dew Point 65 °F
Humidity 94%
Rainfall 0.00 in
Snow Depth Not available.
6:36 AM 9:06 PM
Waning Crescent, 16% visible
METAR KLWA 300415Z AUTO 09004KT 10SM OVC110 20/19 A2996 RMK AO2 T01970187
Pressure 29.96 in
Visibility 10.0 miles
Clouds Overcast 11000 ft
Dew Point 65 °F
Humidity 94%
Rainfall 0.00 in
Snow Depth Not available.
6:36 AM 9:06 PM
Waning Crescent, 16% visible
METAR KLWA 300415Z AUTO 09004KT 10SM OVC110 20/19 A2996 RMK AO2 T01970187

10-Day Weather Forecast

Almanac

Astronomy

Jul. 30, 2016 Rise Set
Actual Time
Civil Twilight
Nautical Twilight
Astronomical Twilight
Moon
Length of Visible Light
Length of Day
Tomorrow will be .
, % of the Moon is Illuminated

Today's Extremes

State Highs State Lows

Community

WunderPhotos

Upload Photos

1,928,506 photos uploaded!

WunderBlog® & News

Nearby

Air Quality

  Air Quality AQ Index Pollutant
Not available.

Snow Depth

Station Depth Elevation

Earthquake Activity

City Distance Mag. Time & Date
Minimum magnitude displayed is 2.5.

Coastal Water Temperatures

Place Temperature

Stations

Nearby Weather Stations

Station Location Temp. Windchill Dew Point Humidity Wind Precip. Elev Updated Type
                   

Watches & Warnings

There are currently no watches in effect.